Time;durP1;ratioP1;P1;durP2;ratioP2;P2;SDS_P1;SDS_P2;PMS_P1;PMS_P2;Temp;Humidity;BMP_temperature;BMP_pressure;BME280_temperature;BME280_humidity;BME280_pressure;Samples;Min_cycle;Max_cycle;Signal;HPM_P1;HPM_P2
2022/11/27 00:02:20;;;;;;;;;;;;;;;;;;7370250;19;1882;-67
2022/11/27 00:04:48;;;;;;;;;;;;;;;;;;7364493;19;1322;-68
2022/11/27 00:07:16;;;;;;;;;;;;;;;;;;7365025;19;802;-67
2022/11/27 00:09:45;;;;;;;;;;;;;;;;;;7365784;19;855;-67
2022/11/27 00:12:13;;;;;;;;;;;;;;;;;;7366641;19;741;-68
2022/11/27 00:14:41;;;;;;;;;;;;;;;;;;7363977;19;1256;-68
2022/11/27 00:17:09;;;;;;;;;;;;;;;;;;7365820;19;761;-69
2022/11/27 00:19:37;;;;;;;;;;;;;;;;;;7366439;19;2232;-68
2022/11/27 00:22:05;;;;;;;;;;;;;;;;;;7365831;19;821;-68
2022/11/27 00:24:33;;;;;;;;;;;;;;;;;;7364536;19;1259;-66
2022/11/27 00:27:02;;;;;;;;;;;;;;;;;;7375056;19;2279;-66
2022/11/27 00:29:30;;;;;;;;;;;;;;;;;;7371362;19;1843;-66
2022/11/27 00:31:58;;;;;;;;;;;;;;;;;;7371902;19;823;-67
2022/11/27 00:34:26;;;;;;;;;;;;;;;;;;7372605;19;1595;-67
2022/11/27 00:36:54;;;;;;;;;;;;;;;;;;7372562;19;815;-66
2022/11/27 00:39:23;;;;;;;;;;;;;;;;;;7370352;19;1842;-66
2022/11/27 00:41:51;;;;;;;;;;;;;;;;;;7373428;19;1897;-66
2022/11/27 00:44:19;;;;;;;;;;;;;;;;;;7369458;19;1286;-67
2022/11/27 00:46:47;;;;;;;;;;;;;;;;;;7372817;19;758;-67
2022/11/27 00:49:16;;;;;;;;;;;;;;;;;;7371412;19;863;-67
2022/11/27 00:51:44;;;;;;;;;;;;;;;;;;7372727;19;1899;-67
2022/11/27 00:54:12;;;;;;;;;;;;;;;;;;7370059;19;1361;-67
2022/11/27 00:56:40;;;;;;;;;;;;;;;;;;7369923;19;1210;-67
2022/11/27 00:59:08;;;;;;;;;;;;;;;;;;7368776;19;1852;-66
2022/11/27 01:01:36;;;;;;;;;;;;;;;;;;7369038;19;849;-66
2022/11/27 01:04:04;;;;;;;;;;;;;;;;;;7370896;19;1393;-66
2022/11/27 01:06:33;;;;;;;;;;;;;;;;;;7368289;19;822;-65
2022/11/27 01:09:01;;;;;;;;;;;;;;;;;;7370240;19;1869;-65
2022/11/27 01:11:29;;;;;;;;;;;;;;;;;;7373821;19;2195;-64
2022/11/27 01:13:57;;;;;;;;;;;;;;;;;;7369603;19;1283;-65
2022/11/27 01:16:25;;;;;;;;;;;;;;;;;;7370055;19;876;-66
2022/11/27 01:18:53;;;;;;;;;;;;;;;;;;7368265;19;1845;-65
2022/11/27 01:21:21;;;;;;;;;;;;;;;;;;7369620;19;853;-66
2022/11/27 01:23:50;;;;;;;;;;;;;;;;;;7369193;19;1370;-65
2022/11/27 01:26:18;;;;;;;;;;;;;;;;;;7373388;19;1862;-66
2022/11/27 01:28:46;;;;;;;;;;;;;;;;;;7374074;19;1677;-65
2022/11/27 01:31:15;;;;;;;;;;;;;;;;;;7372393;19;1756;-66
2022/11/27 01:33:43;;;;;;;;;;;;;;;;;;7368488;19;1322;-66
2022/11/27 01:36:11;;;;;;;;;;;;;;;;;;7369597;19;807;-65
2022/11/27 01:38:39;;;;;;;;;;;;;;;;;;7368449;19;1845;-65
2022/11/27 01:41:07;;;;;;;;;;;;;;;;;;7369617;19;1903;-65
2022/11/27 01:43:36;;;;;;;;;;;;;;;;;;7371301;19;2098;-64
2022/11/27 01:46:04;;;;;;;;;;;;;;;;;;7368496;19;855;-64
2022/11/27 01:48:32;;;;;;;;;;;;;;;;;;7368186;19;744;-64
2022/11/27 01:51:00;;;;;;;;;;;;;;;;;;7368957;19;804;-64
2022/11/27 01:53:28;;;;;;;;;;;;;;;;;;7367501;19;1307;-64
2022/11/27 01:55:56;;;;;;;;;;;;;;;;;;7368349;19;783;-65
2022/11/27 01:58:24;;;;;;;;;;;;;;;;;;7368798;19;1822;-65
2022/11/27 02:00:52;;;;;;;;;;;;;;;;;;7369959;19;886;-64
2022/11/27 02:03:21;;;;;;;;;;;;;;;;;;7370187;19;1772;-65
2022/11/27 02:05:49;;;;;;;;;;;;;;;;;;7368686;19;831;-64
2022/11/27 02:08:17;;;;;;;;;;;;;;;;;;7367901;19;808;-65
2022/11/27 02:10:45;;;;;;;;;;;;;;;;;;7368394;19;843;-65
2022/11/27 02:13:13;;;;;;;;;;;;;;;;;;7367740;19;1274;-65
2022/11/27 02:15:41;;;;;;;;;;;;;;;;;;7368481;19;778;-65
2022/11/27 02:18:10;;;;;;;;;;;;;;;;;;7371767;19;1876;-65
2022/11/27 02:20:38;;;;;;;;;;;;;;;;;;7365353;19;1854;-65
2022/11/27 02:23:06;;;;;;;;;;;;;;;;;;7367680;19;1297;-66
2022/11/27 02:25:34;;;;;;;;;;;;;;;;;;7366836;19;819;-65
2022/11/27 02:28:02;;;;;;;;;;;;;;;;;;7367853;19;787;-65
2022/11/27 02:30:30;;;;;;;;;;;;;;;;;;7371598;19;1744;-66
2022/11/27 02:32:59;;;;;;;;;;;;;;;;;;7368182;19;1357;-65
2022/11/27 02:35:27;;;;;;;;;;;;;;;;;;7371904;19;1869;-65
2022/11/27 02:37:55;;;;;;;;;;;;;;;;;;7366835;19;816;-65
2022/11/27 02:40:24;;;;;;;;;;;;;;;;;;7365915;19;1835;-65
2022/11/27 02:42:52;;;;;;;;;;;;;;;;;;7368381;19;839;-65
2022/11/27 02:45:21;;;;;;;;;;;;;;;;;;7365075;19;1260;-65
2022/11/27 02:47:49;;;;;;;;;;;;;;;;;;7367214;19;846;-65
2022/11/27 02:50:18;;;;;;;;;;;;;;;;;;7366598;19;2261;-65
2022/11/27 02:52:46;;;;;;;;;;;;;;;;;;7372455;19;1975;-65
2022/11/27 02:55:14;;;;;;;;;;;;;;;;;;7365071;19;1857;-65
2022/11/27 02:57:42;;;;;;;;;;;;;;;;;;7365526;19;806;-64
2022/11/27 03:00:10;;;;;;;;;;;;;;;;;;7363821;19;1806;-65
2022/11/27 03:02:40;;;;;;;;;;;;;;;;;;7369343;19;1868;-65
2022/11/27 03:05:08;;;;;;;;;;;;;;;;;;7367628;19;2201;-65
2022/11/27 03:07:36;;;;;;;;;;;;;;;;;;7367503;19;1871;-65
2022/11/27 03:10:05;;;;;;;;;;;;;;;;;;7366481;19;812;-64
2022/11/27 03:12:33;;;;;;;;;;;;;;;;;;7367059;19;707;-65
2022/11/27 03:15:01;;;;;;;;;;;;;;;;;;7364593;19;1369;-64
2022/11/27 03:17:29;;;;;;;;;;;;;;;;;;7365653;19;820;-64
2022/11/27 03:19:57;;;;;;;;;;;;;;;;;;7363089;19;1854;-64
2022/11/27 03:22:25;;;;;;;;;;;;;;;;;;7367026;19;812;-64
2022/11/27 03:24:53;;;;;;;;;;;;;;;;;;7365788;19;1880;-65
2022/11/27 03:27:22;;;;;;;;;;;;;;;;;;7366934;19;861;-64
2022/11/27 03:29:50;;;;;;;;;;;;;;;;;;7365657;19;825;-64
2022/11/27 03:32:18;;;;;;;;;;;;;;;;;;7364995;19;849;-64
2022/11/27 03:34:46;;;;;;;;;;;;;;;;;;7363809;19;1315;-64
2022/11/27 03:37:14;;;;;;;;;;;;;;;;;;7366578;19;824;-64
2022/11/27 03:39:43;;;;;;;;;;;;;;;;;;7364801;19;1849;-64
2022/11/27 03:42:11;;;;;;;;;;;;;;;;;;7368611;19;1881;-64
2022/11/27 03:44:39;;;;;;;;;;;;;;;;;;7362016;19;1945;-65
2022/11/27 03:47:07;;;;;;;;;;;;;;;;;;7366201;19;829;-65
2022/11/27 03:49:35;;;;;;;;;;;;;;;;;;7364921;19;894;-64
2022/11/27 03:52:03;;;;;;;;;;;;;;;;;;7365930;19;816;-63
2022/11/27 03:54:31;;;;;;;;;;;;;;;;;;7364098;19;1270;-64
2022/11/27 03:57:00;;;;;;;;;;;;;;;;;;7364722;19;881;-65
2022/11/27 03:59:28;;;;;;;;;;;;;;;;;;7372999;19;1846;-63
2022/11/27 04:01:56;;;;;;;;;;;;;;;;;;7374345;19;863;-64
2022/11/27 04:04:24;;;;;;;;;;;;;;;;;;7376998;19;1274;-63
2022/11/27 04:06:52;;;;;;;;;;;;;;;;;;7377893;19;1106;-63
2022/11/27 04:09:20;;;;;;;;;;;;;;;;;;7377847;19;834;-63
2022/11/27 04:11:48;;;;;;;;;;;;;;;;;;7378540;19;890;-64
2022/11/27 04:14:16;;;;;;;;;;;;;;;;;;7372944;19;1849;-63
2022/11/27 04:16:45;;;;;;;;;;;;;;;;;;7372932;19;798;-63
2022/11/27 04:19:13;;;;;;;;;;;;;;;;;;7372692;19;1856;-63
2022/11/27 04:21:41;;;;;;;;;;;;;;;;;;7373893;19;808;-64
2022/11/27 04:24:09;;;;;;;;;;;;;;;;;;7372973;19;1322;-64
2022/11/27 04:26:37;;;;;;;;;;;;;;;;;;7372558;19;786;-64
2022/11/27 04:29:05;;;;;;;;;;;;;;;;;;7371373;19;870;-63
2022/11/27 04:31:33;;;;;;;;;;;;;;;;;;7372189;19;1911;-64
2022/11/27 04:34:01;;;;;;;;;;;;;;;;;;7370494;19;1291;-63
2022/11/27 04:36:30;;;;;;;;;;;;;;;;;;7371054;19;810;-64
2022/11/27 04:38:58;;;;;;;;;;;;;;;;;;7370627;19;764;-64
2022/11/27 04:41:28;;;;;;;;;;;;;;;;;;7367433;19;1851;-65
2022/11/27 04:43:56;;;;;;;;;;;;;;;;;;7370575;19;1281;-66
2022/11/27 04:46:24;;;;;;;;;;;;;;;;;;7372586;19;1820;-65
2022/11/27 04:48:52;;;;;;;;;;;;;;;;;;7371661;19;1829;-63
2022/11/27 04:51:20;;;;;;;;;;;;;;;;;;7370863;19;811;-63
2022/11/27 04:53:48;;;;;;;;;;;;;;;;;;7369767;19;1371;-64
2022/11/27 04:56:16;;;;;;;;;;;;;;;;;;7370023;19;807;-63
2022/11/27 04:58:45;;;;;;;;;;;;;;;;;;7370116;19;854;-64
2022/11/27 05:01:13;;;;;;;;;;;;;;;;;;7369196;19;1861;-63
2022/11/27 05:03:41;;;;;;;;;;;;;;;;;;7369967;19;1341;-64
2022/11/27 05:06:09;;;;;;;;;;;;;;;;;;7372335;19;1826;-64
2022/11/27 05:08:37;;;;;;;;;;;;;;;;;;7368268;19;877;-63
2022/11/27 05:11:05;;;;;;;;;;;;;;;;;;7370528;19;835;-63
2022/11/27 05:13:33;;;;;;;;;;;;;;;;;;7369164;19;1291;-62
2022/11/27 05:16:01;;;;;;;;;;;;;;;;;;7370611;19;846;-63
2022/11/27 05:18:30;;;;;;;;;;;;;;;;;;7369398;19;864;-63
2022/11/27 05:20:58;;;;;;;;;;;;;;;;;;7368938;19;1857;-63
2022/11/27 05:23:26;;;;;;;;;;;;;;;;;;7372244;19;1837;-62
2022/11/27 05:25:54;;;;;;;;;;;;;;;;;;7371673;19;1852;-63
2022/11/27 05:28:22;;;;;;;;;;;;;;;;;;7369352;19;795;-63
2022/11/27 05:30:50;;;;;;;;;;;;;;;;;;7369535;19;740;-63
2022/11/27 05:33:19;;;;;;;;;;;;;;;;;;7369759;19;1397;-65
2022/11/27 05:35:47;;;;;;;;;;;;;;;;;;7369505;19;819;-65
2022/11/27 05:38:15;;;;;;;;;;;;;;;;;;7369004;19;944;-65
2022/11/27 05:40:43;;;;;;;;;;;;;;;;;;7371906;19;1896;-63
2022/11/27 05:43:11;;;;;;;;;;;;;;;;;;7369624;19;1283;-62
2022/11/27 05:45:39;;;;;;;;;;;;;;;;;;7370276;19;751;-63
2022/11/27 05:48:07;;;;;;;;;;;;;;;;;;7368970;19;808;-63
2022/11/27 05:50:36;;;;;;;;;;;;;;;;;;7368750;19;822;-63
2022/11/27 05:53:04;;;;;;;;;;;;;;;;;;7369620;19;1378;-63
2022/11/27 05:55:32;;;;;;;;;;;;;;;;;;7370499;19;1882;-63
2022/11/27 05:58:00;;;;;;;;;;;;;;;;;;7369451;19;812;-65
2022/11/27 06:00:28;;;;;;;;;;;;;;;;;;7368564;19;1886;-65
2022/11/27 06:02:56;;;;;;;;;;;;;;;;;;7368842;19;854;-62
2022/11/27 06:05:24;;;;;;;;;;;;;;;;;;7370921;19;1726;-63
2022/11/27 06:07:53;;;;;;;;;;;;;;;;;;7368296;19;860;-63
2022/11/27 06:10:21;;;;;;;;;;;;;;;;;;7368956;19;800;-63
2022/11/27 06:12:49;;;;;;;;;;;;;;;;;;7369657;19;1875;-63
2022/11/27 06:15:17;;;;;;;;;;;;;;;;;;7366271;19;1310;-63
2022/11/27 06:17:45;;;;;;;;;;;;;;;;;;7366936;19;1054;-63
2022/11/27 06:20:13;;;;;;;;;;;;;;;;;;7368284;19;1863;-63
2022/11/27 06:22:41;;;;;;;;;;;;;;;;;;7369277;19;783;-62
2022/11/27 06:25:09;;;;;;;;;;;;;;;;;;7363842;19;1240;-62
2022/11/27 06:27:38;;;;;;;;;;;;;;;;;;7368510;19;803;-63
2022/11/27 06:30:06;;;;;;;;;;;;;;;;;;7370939;19;2114;-63
2022/11/27 06:32:34;;;;;;;;;;;;;;;;;;7371214;19;1843;-65
2022/11/27 06:35:02;;;;;;;;;;;;;;;;;;7369425;19;1715;-63
2022/11/27 06:37:30;;;;;;;;;;;;;;;;;;7366841;19;867;-62
2022/11/27 06:39:58;;;;;;;;;;;;;;;;;;7367590;19;1839;-64
2022/11/27 06:42:26;;;;;;;;;;;;;;;;;;7368039;19;803;-63
2022/11/27 06:44:55;;;;;;;;;;;;;;;;;;7365602;19;1271;-63
2022/11/27 06:47:23;;;;;;;;;;;;;;;;;;7371571;19;1869;-64
2022/11/27 06:49:51;;;;;;;;;;;;;;;;;;7365819;19;830;-64
2022/11/27 06:52:19;;;;;;;;;;;;;;;;;;7367614;19;792;-64
2022/11/27 06:54:47;;;;;;;;;;;;;;;;;;7364760;19;1271;-64
2022/11/27 06:57:15;;;;;;;;;;;;;;;;;;7368224;19;789;-64
2022/11/27 06:59:43;;;;;;;;;;;;;;;;;;7369309;19;1881;-64
2022/11/27 07:02:12;;;;;;;;;;;;;;;;;;7365096;19;1877;-63
2022/11/27 07:04:40;;;;;;;;;;;;;;;;;;7364888;19;1345;-64
2022/11/27 07:07:08;;;;;;;;;;;;;;;;;;7367169;19;812;-63
2022/11/27 07:09:36;;;;;;;;;;;;;;;;;;7366233;19;840;-64
2022/11/27 07:12:04;;;;;;;;;;;;;;;;;;7367453;19;910;-64
2022/11/27 07:14:32;;;;;;;;;;;;;;;;;;7365271;19;1262;-64
2022/11/27 07:17:00;;;;;;;;;;;;;;;;;;7367009;19;868;-64
2022/11/27 07:19:28;;;;;;;;;;;;;;;;;;7367688;19;1855;-64
2022/11/27 07:21:57;;;;;;;;;;;;;;;;;;7363916;19;1845;-64
2022/11/27 07:24:25;;;;;;;;;;;;;;;;;;7365096;19;1278;-63
2022/11/27 07:26:53;;;;;;;;;;;;;;;;;;7366815;19;820;-63
2022/11/27 07:29:21;;;;;;;;;;;;;;;;;;7366143;19;767;-64
2022/11/27 07:31:50;;;;;;;;;;;;;;;;;;7366695;19;807;-63
2022/11/27 07:34:18;;;;;;;;;;;;;;;;;;7364591;19;1278;-63
2022/11/27 07:36:46;;;;;;;;;;;;;;;;;;7368813;19;1910;-64
2022/11/27 07:39:14;;;;;;;;;;;;;;;;;;7365976;19;830;-62
2022/11/27 07:41:42;;;;;;;;;;;;;;;;;;7364360;19;1837;-63
2022/11/27 07:44:10;;;;;;;;;;;;;;;;;;7364792;19;1341;-63
2022/11/27 07:46:38;;;;;;;;;;;;;;;;;;7366416;19;1874;-63
2022/11/27 07:49:07;;;;;;;;;;;;;;;;;;7376294;19;1597;-64
2022/11/27 07:51:35;;;;;;;;;;;;;;;;;;7375095;19;1627;-62
2022/11/27 07:54:03;;;;;;;;;;;;;;;;;;7375417;19;1853;-63
2022/11/27 07:56:31;;;;;;;;;;;;;;;;;;7373135;19;847;-64
2022/11/27 07:58:59;;;;;;;;;;;;;;;;;;7365419;19;799;-63
2022/11/27 08:01:27;;;;;;;;;;;;;;;;;;7363479;19;1853;-63
2022/11/27 08:03:56;;;;;;;;;;;;;;;;;;7363011;19;1290;-63
2022/11/27 08:06:24;;;;;;;;;;;;;;;;;;7365639;19;763;-66
2022/11/27 08:08:52;;;;;;;;;;;;;;;;;;7365385;19;797;-67
2022/11/27 08:11:20;;;;;;;;;;;;;;;;;;7369038;19;1849;-63
2022/11/27 08:13:48;;;;;;;;;;;;;;;;;;7364236;19;1231;-66
2022/11/27 08:16:16;;;;;;;;;;;;;;;;;;7364915;19;799;-65
2022/11/27 08:18:44;;;;;;;;;;;;;;;;;;7364589;19;822;-65
2022/11/27 08:21:12;;;;;;;;;;;;;;;;;;7364051;19;1849;-65
2022/11/27 08:23:41;;;;;;;;;;;;;;;;;;7364348;19;1286;-65
2022/11/27 08:26:09;;;;;;;;;;;;;;;;;;7365309;19;1840;-66
2022/11/27 08:28:37;;;;;;;;;;;;;;;;;;7368551;19;1942;-63
2022/11/27 08:31:05;;;;;;;;;;;;;;;;;;7366959;19;1892;-64
2022/11/27 08:33:33;;;;;;;;;;;;;;;;;;7361315;19;1262;-65
2022/11/27 08:36:01;;;;;;;;;;;;;;;;;;7364207;19;815;-65
2022/11/27 08:38:29;;;;;;;;;;;;;;;;;;7363355;19;812;-64
2022/11/27 08:40:57;;;;;;;;;;;;;;;;;;7364299;19;1931;-65
2022/11/27 08:43:26;;;;;;;;;;;;;;;;;;7362830;19;1350;-64
2022/11/27 08:45:54;;;;;;;;;;;;;;;;;;7363729;19;780;-63
2022/11/27 08:48:22;;;;;;;;;;;;;;;;;;7368609;19;862;-63
2022/11/27 08:50:50;;;;;;;;;;;;;;;;;;7370594;19;820;-64
2022/11/27 08:53:18;;;;;;;;;;;;;;;;;;7369186;19;1267;-65
2022/11/27 08:55:46;;;;;;;;;;;;;;;;;;7372031;19;1684;-67
2022/11/27 08:58:14;;;;;;;;;;;;;;;;;;7369983;19;806;-65
2022/11/27 09:00:43;;;;;;;;;;;;;;;;;;7370402;19;1821;-67
2022/11/27 09:03:11;;;;;;;;;;;;;;;;;;7369326;19;1274;-65
2022/11/27 09:05:39;;;;;;;;;;;;;;;;;;7370133;19;756;-67
2022/11/27 09:08:07;;;;;;;;;;;;;;;;;;7365500;19;858;-67
2022/11/27 09:10:35;;;;;;;;;;;;;;;;;;7371917;19;1845;-66
2022/11/27 09:13:03;;;;;;;;;;;;;;;;;;7374756;19;1842;-64
2022/11/27 09:15:31;;;;;;;;;;;;;;;;;;7369720;19;848;-65
2022/11/27 09:18:00;;;;;;;;;;;;;;;;;;7371067;19;1893;-65
2022/11/27 09:20:28;;;;;;;;;;;;;;;;;;7369784;19;821;-65
2022/11/27 09:22:56;;;;;;;;;;;;;;;;;;7369975;19;1881;-67
2022/11/27 09:25:24;;;;;;;;;;;;;;;;;;7367066;19;1342;-66
2022/11/27 09:27:52;;;;;;;;;;;;;;;;;;7367785;19;832;-66
2022/11/27 09:30:20;;;;;;;;;;;;;;;;;;7368116;19;850;-65
2022/11/27 09:32:49;;;;;;;;;;;;;;;;;;7369268;19;781;-66
2022/11/27 09:35:17;;;;;;;;;;;;;;;;;;7367211;19;1263;-66
2022/11/27 09:37:45;;;;;;;;;;;;;;;;;;7369952;19;1844;-66
2022/11/27 09:40:13;;;;;;;;;;;;;;;;;;7368757;19;867;-65
2022/11/27 09:42:41;;;;;;;;;;;;;;;;;;7366510;19;1868;-64
2022/11/27 09:45:09;;;;;;;;;;;;;;;;;;7369147;19;1902;-65
2022/11/27 09:47:38;;;;;;;;;;;;;;;;;;7368251;19;814;-65
2022/11/27 09:50:06;;;;;;;;;;;;;;;;;;7368237;19;842;-65
2022/11/27 09:52:34;;;;;;;;;;;;;;;;;;7369370;19;818;-65
2022/11/27 09:55:02;;;;;;;;;;;;;;;;;;7368837;19;1863;-67
2022/11/27 09:57:31;;;;;;;;;;;;;;;;;;7368776;19;822;-67
2022/11/27 09:59:59;;;;;;;;;;;;;;;;;;7365584;19;836;-68
2022/11/27 10:02:27;;;;;;;;;;;;;;;;;;7367258;19;1846;-66
2022/11/27 10:04:55;;;;;;;;;;;;;;;;;;7366081;19;1317;-66
2022/11/27 10:07:23;;;;;;;;;;;;;;;;;;7367899;19;851;-67
2022/11/27 10:09:51;;;;;;;;;;;;;;;;;;7371849;19;1895;-65
2022/11/27 10:12:20;;;;;;;;;;;;;;;;;;7371233;19;1908;-65
2022/11/27 10:14:48;;;;;;;;;;;;;;;;;;7365826;19;1307;-64
2022/11/27 10:17:19;;;;;;;;;;;;;;;;;;7368219;19;1022;-65
2022/11/27 10:19:48;;;;;;;;;;;;;;;;;;7368440;19;748;-68
2022/11/27 10:22:16;;;;;;;;;;;;;;;;;;7365538;19;1842;-70
2022/11/27 10:24:44;;;;;;;;;;;;;;;;;;7365615;19;1244;-66
2022/11/27 10:27:12;;;;;;;;;;;;;;;;;;7368829;19;1635;-66
2022/11/27 10:29:40;;;;;;;;;;;;;;;;;;7366591;19;794;-67
2022/11/27 10:32:08;;;;;;;;;;;;;;;;;;7367817;19;785;-67
2022/11/27 10:34:36;;;;;;;;;;;;;;;;;;7366080;19;1344;-67
2022/11/27 10:37:05;;;;;;;;;;;;;;;;;;7368076;19;873;-69
2022/11/27 10:39:33;;;;;;;;;;;;;;;;;;7367028;19;796;-68
2022/11/27 10:42:01;;;;;;;;;;;;;;;;;;7366120;19;1834;-66
2022/11/27 10:44:29;;;;;;;;;;;;;;;;;;7367802;19;1898;-67
2022/11/27 10:46:57;;;;;;;;;;;;;;;;;;7366738;19;788;-66
2022/11/27 10:49:25;;;;;;;;;;;;;;;;;;7366853;19;823;-66
2022/11/27 10:51:53;;;;;;;;;;;;;;;;;;7368706;19;862;-67
2022/11/27 10:54:22;;;;;;;;;;;;;;;;;;7368741;19;1290;-65
2022/11/27 10:56:50;;;;;;;;;;;;;;;;;;7370416;19;862;-68
2022/11/27 10:59:18;;;;;;;;;;;;;;;;;;7369976;19;716;-67
2022/11/27 11:01:46;;;;;;;;;;;;;;;;;;7374830;19;1897;-65
2022/11/27 11:04:14;;;;;;;;;;;;;;;;;;7370054;19;1279;-67
2022/11/27 11:06:42;;;;;;;;;;;;;;;;;;7369404;19;773;-65
2022/11/27 11:09:11;;;;;;;;;;;;;;;;;;7367395;19;855;-65
2022/11/27 11:11:39;;;;;;;;;;;;;;;;;;7368119;19;893;-65
2022/11/27 11:14:07;;;;;;;;;;;;;;;;;;7367826;19;1842;-65
2022/11/27 11:16:35;;;;;;;;;;;;;;;;;;7368952;19;828;-65
2022/11/27 11:19:05;;;;;;;;;;;;;;;;;;7368003;19;876;-65
2022/11/27 11:21:33;;;;;;;;;;;;;;;;;;7366778;19;1853;-65
2022/11/27 11:24:01;;;;;;;;;;;;;;;;;;7367003;19;1296;-67
2022/11/27 11:26:29;;;;;;;;;;;;;;;;;;7367052;19;770;-65
2022/11/27 11:28:57;;;;;;;;;;;;;;;;;;7365109;19;779;-66
2022/11/27 11:31:25;;;;;;;;;;;;;;;;;;7368718;19;1835;-65
2022/11/27 11:33:53;;;;;;;;;;;;;;;;;;7365382;19;1283;-66
2022/11/27 11:36:22;;;;;;;;;;;;;;;;;;7365997;19;1005;-67
2022/11/27 11:38:50;;;;;;;;;;;;;;;;;;7365790;19;870;-66
2022/11/27 11:41:19;;;;;;;;;;;;;;;;;;7366738;19;862;-66
2022/11/27 11:43:47;;;;;;;;;;;;;;;;;;7366194;19;1904;-65
2022/11/27 11:46:15;;;;;;;;;;;;;;;;;;7369452;19;1873;-65
2022/11/27 11:48:43;;;;;;;;;;;;;;;;;;7368799;19;1861;-66
2022/11/27 11:51:12;;;;;;;;;;;;;;;;;;7366601;19;806;-66
2022/11/27 11:53:40;;;;;;;;;;;;;;;;;;7365597;19;1306;-66
2022/11/27 11:56:08;;;;;;;;;;;;;;;;;;7366222;19;801;-68
2022/11/27 11:58:36;;;;;;;;;;;;;;;;;;7365239;19;847;-68
2022/11/27 12:01:04;;;;;;;;;;;;;;;;;;7365550;19;1844;-65
2022/11/27 12:03:32;;;;;;;;;;;;;;;;;;7367307;19;1927;-66
2022/11/27 12:06:01;;;;;;;;;;;;;;;;;;7368068;19;843;-68
2022/11/27 12:08:29;;;;;;;;;;;;;;;;;;7367637;19;813;-65
2022/11/27 12:10:57;;;;;;;;;;;;;;;;;;7367140;19;847;-67
2022/11/27 12:13:25;;;;;;;;;;;;;;;;;;7366522;19;1334;-68
2022/11/27 12:15:53;;;;;;;;;;;;;;;;;;7367100;19;1730;-66
2022/11/27 12:18:21;;;;;;;;;;;;;;;;;;7369147;19;1926;-66
2022/11/27 12:20:49;;;;;;;;;;;;;;;;;;7368321;19;1604;-66
2022/11/27 12:23:18;;;;;;;;;;;;;;;;;;7371884;19;1872;-68
2022/11/27 12:25:46;;;;;;;;;;;;;;;;;;7371760;19;784;-66
2022/11/27 12:28:14;;;;;;;;;;;;;;;;;;7370541;19;811;-65
2022/11/27 12:30:42;;;;;;;;;;;;;;;;;;7371765;19;2209;-66
2022/11/27 12:33:10;;;;;;;;;;;;;;;;;;7371151;19;1302;-66
2022/11/27 12:35:38;;;;;;;;;;;;;;;;;;7371787;19;861;-68
2022/11/27 12:38:07;;;;;;;;;;;;;;;;;;7374727;19;1862;-65
2022/11/27 12:40:35;;;;;;;;;;;;;;;;;;7374281;19;1746;-67
2022/11/27 12:43:03;;;;;;;;;;;;;;;;;;7368284;19;1861;-66
2022/11/27 12:45:31;;;;;;;;;;;;;;;;;;7373703;19;1815;-66
2022/11/27 12:47:59;;;;;;;;;;;;;;;;;;7374965;19;1912;-68
2022/11/27 12:50:28;;;;;;;;;;;;;;;;;;7371042;19;806;-67
2022/11/27 12:52:56;;;;;;;;;;;;;;;;;;7371869;19;867;-66
2022/11/27 12:55:25;;;;;;;;;;;;;;;;;;7368888;19;1244;-67
2022/11/27 12:57:53;;;;;;;;;;;;;;;;;;7370616;19;816;-67
2022/11/27 13:00:21;;;;;;;;;;;;;;;;;;7375339;19;1845;-66
2022/11/27 13:02:50;;;;;;;;;;;;;;;;;;7370094;19;1841;-67
2022/11/27 13:05:19;;;;;;;;;;;;;;;;;;7366933;19;1327;-66
2022/11/27 13:07:47;;;;;;;;;;;;;;;;;;7369857;19;794;-67
2022/11/27 13:10:16;;;;;;;;;;;;;;;;;;7369633;19;846;-66
2022/11/27 13:12:44;;;;;;;;;;;;;;;;;;7370343;19;1870;-67
2022/11/27 13:15:12;;;;;;;;;;;;;;;;;;7369042;19;1975;-67
2022/11/27 13:17:40;;;;;;;;;;;;;;;;;;7369855;19;815;-68
2022/11/27 13:20:08;;;;;;;;;;;;;;;;;;7369363;19;800;-68
2022/11/27 13:22:36;;;;;;;;;;;;;;;;;;7369284;19;1860;-66
2022/11/27 13:25:04;;;;;;;;;;;;;;;;;;7367677;19;1290;-66
2022/11/27 13:27:32;;;;;;;;;;;;;;;;;;7371567;19;1914;-67
2022/11/27 13:30:01;;;;;;;;;;;;;;;;;;7371738;19;1868;-69
2022/11/27 13:32:29;;;;;;;;;;;;;;;;;;7371988;19;1670;-66
2022/11/27 13:34:57;;;;;;;;;;;;;;;;;;7365853;19;1341;-68
2022/11/27 13:37:25;;;;;;;;;;;;;;;;;;7371292;19;1755;-68
2022/11/27 13:39:53;;;;;;;;;;;;;;;;;;7369179;19;991;-68
2022/11/27 13:42:21;;;;;;;;;;;;;;;;;;7371106;19;1860;-68
2022/11/27 13:44:49;;;;;;;;;;;;;;;;;;7367701;19;1314;-65
2022/11/27 13:47:18;;;;;;;;;;;;;;;;;;7369554;19;814;-65
2022/11/27 13:49:46;;;;;;;;;;;;;;;;;;7369113;19;822;-65
2022/11/27 13:52:15;;;;;;;;;;;;;;;;;;7369356;19;820;-67
2022/11/27 13:54:43;;;;;;;;;;;;;;;;;;7367628;19;1291;-66
2022/11/27 13:57:11;;;;;;;;;;;;;;;;;;7372488;19;2250;-67
2022/11/27 13:59:39;;;;;;;;;;;;;;;;;;7371783;19;1869;-67
2022/11/27 14:02:07;;;;;;;;;;;;;;;;;;7369662;19;1892;-67
2022/11/27 14:04:35;;;;;;;;;;;;;;;;;;7366746;19;1338;-67
2022/11/27 14:07:05;;;;;;;;;;;;;;;;;;7368987;19;829;-68
2022/11/27 14:09:33;;;;;;;;;;;;;;;;;;7368964;19;1906;-67
2022/11/27 14:12:02;;;;;;;;;;;;;;;;;;7369095;19;783;-67
2022/11/27 14:14:30;;;;;;;;;;;;;;;;;;7366576;19;1336;-67
2022/11/27 14:16:59;;;;;;;;;;;;;;;;;;7370001;19;1814;-66
2022/11/27 14:19:27;;;;;;;;;;;;;;;;;;7367749;19;862;-69
2022/11/27 14:21:55;;;;;;;;;;;;;;;;;;7368949;19;933;-69
2022/11/27 14:24:23;;;;;;;;;;;;;;;;;;7367526;19;1877;-68
2022/11/27 14:26:51;;;;;;;;;;;;;;;;;;7367679;19;823;-66
2022/11/27 14:29:19;;;;;;;;;;;;;;;;;;7367405;19;843;-66
2022/11/27 14:31:47;;;;;;;;;;;;;;;;;;7370274;19;1725;-67
2022/11/27 14:34:16;;;;;;;;;;;;;;;;;;7365885;19;1380;-68
2022/11/27 14:36:44;;;;;;;;;;;;;;;;;;7366356;19;831;-69
2022/11/27 14:39:12;;;;;;;;;;;;;;;;;;7367116;19;779;-68
2022/11/27 14:41:40;;;;;;;;;;;;;;;;;;7367427;19;786;-68
2022/11/27 14:44:08;;;;;;;;;;;;;;;;;;7363972;19;1834;-68
2022/11/27 14:46:36;;;;;;;;;;;;;;;;;;7369946;19;1886;-67
2022/11/27 14:49:05;;;;;;;;;;;;;;;;;;7370684;19;1830;-68
2022/11/27 14:51:33;;;;;;;;;;;;;;;;;;7367910;19;897;-67
2022/11/27 14:54:02;;;;;;;;;;;;;;;;;;7365471;19;1330;-66
2022/11/27 14:56:30;;;;;;;;;;;;;;;;;;7367493;19;868;-66
2022/11/27 14:58:58;;;;;;;;;;;;;;;;;;7366806;19;1845;-67
2022/11/27 15:01:26;;;;;;;;;;;;;;;;;;7367417;19;852;-66
2022/11/27 15:03:54;;;;;;;;;;;;;;;;;;7365926;19;1851;-67
2022/11/27 15:06:22;;;;;;;;;;;;;;;;;;7367318;19;821;-67
2022/11/27 15:08:51;;;;;;;;;;;;;;;;;;7366531;19;800;-67
2022/11/27 15:11:19;;;;;;;;;;;;;;;;;;7367922;19;848;-67
2022/11/27 15:13:47;;;;;;;;;;;;;;;;;;7367632;19;1908;-67
2022/11/27 15:16:15;;;;;;;;;;;;;;;;;;7369106;19;1856;-67
2022/11/27 15:18:43;;;;;;;;;;;;;;;;;;7366650;19;842;-67
2022/11/27 15:21:12;;;;;;;;;;;;;;;;;;7366757;19;834;-68
2022/11/27 15:23:40;;;;;;;;;;;;;;;;;;7364419;19;1846;-67
2022/11/27 15:26:09;;;;;;;;;;;;;;;;;;7366136;19;922;-67
2022/11/27 15:28:37;;;;;;;;;;;;;;;;;;7367603;19;1900;-67
2022/11/27 15:31:05;;;;;;;;;;;;;;;;;;7365747;19;841;-68
2022/11/27 15:33:33;;;;;;;;;;;;;;;;;;7364397;19;1294;-67
2022/11/27 15:36:01;;;;;;;;;;;;;;;;;;7366366;19;803;-67
2022/11/27 15:38:30;;;;;;;;;;;;;;;;;;7365887;19;805;-67
2022/11/27 15:40:59;;;;;;;;;;;;;;;;;;7366669;19;776;-67
2022/11/27 15:43:27;;;;;;;;;;;;;;;;;;7368017;19;1871;-67
2022/11/27 15:45:55;;;;;;;;;;;;;;;;;;7366776;19;810;-67
2022/11/27 15:48:24;;;;;;;;;;;;;;;;;;7365436;19;843;-67
2022/11/27 15:50:52;;;;;;;;;;;;;;;;;;7365042;19;862;-68
2022/11/27 15:53:21;;;;;;;;;;;;;;;;;;7365914;19;1275;-67
2022/11/27 15:55:49;;;;;;;;;;;;;;;;;;7368053;19;2141;-67
2022/11/27 15:58:17;;;;;;;;;;;;;;;;;;7371567;19;871;-66
2022/11/27 16:00:45;;;;;;;;;;;;;;;;;;7372298;19;815;-67
2022/11/27 16:03:14;;;;;;;;;;;;;;;;;;7372127;19;1845;-67
2022/11/27 16:05:42;;;;;;;;;;;;;;;;;;7371907;19;776;-67
2022/11/27 16:08:12;;;;;;;;;;;;;;;;;;7370804;19;806;-67
2022/11/27 16:10:40;;;;;;;;;;;;;;;;;;7374248;19;1860;-66
2022/11/27 16:13:09;;;;;;;;;;;;;;;;;;7372721;19;1345;-67
2022/11/27 16:15:37;;;;;;;;;;;;;;;;;;7372282;19;863;-67
2022/11/27 16:18:05;;;;;;;;;;;;;;;;;;7371460;19;793;-68
2022/11/27 16:20:34;;;;;;;;;;;;;;;;;;7372673;19;772;-68
2022/11/27 16:23:02;;;;;;;;;;;;;;;;;;7371793;19;1841;-66
2022/11/27 16:25:30;;;;;;;;;;;;;;;;;;7375529;19;1858;-69
2022/11/27 16:27:58;;;;;;;;;;;;;;;;;;7369507;19;850;-65
2022/11/27 16:30:26;;;;;;;;;;;;;;;;;;7370266;19;823;-66
2022/11/27 16:32:55;;;;;;;;;;;;;;;;;;7372483;19;812;-67
2022/11/27 16:35:23;;;;;;;;;;;;;;;;;;7370130;19;1302;-67
2022/11/27 16:37:51;;;;;;;;;;;;;;;;;;7370915;19;793;-67
2022/11/27 16:40:20;;;;;;;;;;;;;;;;;;7374022;19;2031;-66
2022/11/27 16:42:49;;;;;;;;;;;;;;;;;;7369172;19;1405;-67
2022/11/27 16:45:18;;;;;;;;;;;;;;;;;;7367148;19;1334;-67
2022/11/27 16:47:47;;;;;;;;;;;;;;;;;;7370282;19;840;-67
2022/11/27 16:50:15;;;;;;;;;;;;;;;;;;7370869;19;787;-67
2022/11/27 16:52:47;;;;;;;;;;;;;;;;;;7370152;19;1887;-66
2022/11/27 16:55:15;;;;;;;;;;;;;;;;;;7370127;19;1271;-66
2022/11/27 16:57:44;;;;;;;;;;;;;;;;;;7368679;19;1824;-66
2022/11/27 17:00:12;;;;;;;;;;;;;;;;;;7369619;19;848;-67
2022/11/27 17:02:41;;;;;;;;;;;;;;;;;;7374328;19;1896;-67
2022/11/27 17:05:09;;;;;;;;;;;;;;;;;;7370310;19;1870;-66
2022/11/27 17:07:37;;;;;;;;;;;;;;;;;;7370616;19;1937;-66
2022/11/27 17:10:05;;;;;;;;;;;;;;;;;;7370942;19;779;-66
2022/11/27 17:12:33;;;;;;;;;;;;;;;;;;7370534;19;844;-67
2022/11/27 17:15:02;;;;;;;;;;;;;;;;;;7367892;19;1353;-67
2022/11/27 17:17:31;;;;;;;;;;;;;;;;;;7370054;19;814;-67